Aviation Digital Data Service (ADDS)

Output produced by METARs form (0244 UTC 24 July 2017)
found at http://www.aviationweather.gov/adds/metars/
 
TAF SKBQ 232300Z 2400/2424 35011KT 9999 SCT015 BKN200 
     TEMPO 2402/2405 SCT017TCU 
     TEMPO 2409/2413 5000 BR 
     TEMPO 2419/2423 05010KT FEW020TCU TX35/2418Z TN25/2411Z
       
TAF SKBO 232300Z 2400/2424 14015KT 9999 DZ BKN020 SCT200 
     BECMG 2401/2403 18007KT 
     TEMPO 2402/2405 8000 DZRA SCT017TCU BKN090 
     TEMPO 2409/2413 8000 DZ 
     TEMPO 2419/2423 VCSH SCT017TCU TX20/2418Z TN10/2411Z
       
TAF SKBG 232300Z 2400/2424 34004KT 9999 DZ SCT012 BKN080 
     BECMG 2401/403 VRB02KT 
     TEMPO 2402/2405 VCSH SCT017TCU 
     TEMPO 2409/2413 8000 BKN015 
     TEMPO 2419/2423 33010KT SCT017TCU TX27/2418Z TN18/2411Z
       
TAF SKCL 232300Z 2400/2424 25008KT 9999 SCT020 SCT100 
     BECMG 2401/2403 36010KT 
     TEMPO 2402/2405 DZ SCT017TCU 
     TEMPO 2409/2413 8000 DZ BKN015 
     TEMPO 
     TEMPO 2419/2423 09007KT VCSH SCT017TCU TX32/2419Z TN19/2411Z
       
TAF SKCG 232300Z 2400/2424 36010KT 9999 SCT017 SCT200 
     TEMPO 2402/2405 SCT015TCU 
     TEMPO 2409/2413 8000 SCT015 
     TEMPO 2419/2423 29005KT SCT015TCU TX33/2418Z TN26/2411Z
       
TAF SKCC 232300Z 2400/2424 13015KT 9999 SCT023 SCT090 
     BECMG 2401/2403 18015KT 
     TEMPO 2402/2405 DZ SCT017TCU 
     TEMPO 2409/2413 8000 SCT015 
     TEMPO 2419/2423 12010KT SCT015TCU TX33/2418Z TN26/2411Z
       
TAF SKLT 232300Z 2400/2424 21004KT 9999 FEW020 SCT200 
     BECMG 2401/2403 00000KT CAVOK 
     TEMPO 2409/2413 5000 BR 
     TEMPO 2419/2423 25010KT BKN015 TX32/2419Z TN18/2411Z
       
TAF SKRG 232300Z 2400/2424 11008KT 9999 FEW020 SCT200 
     BECMG 2401/2403 VRB02KT 
     TEMPO 2402/2405 DZ SCT017TCU 
     TEMPO 2409/2413 5000 BR DZ 
     TEMPO 2419/2423 VCSH SCT017TCU TX24/2418Z TN12/2411Z
       
TAF SKPE 232300Z 2400/2424 29004KT 9999 FEW022 SCT200 
     BECMG 2401/2403 36010KT 
     TEMPO 2402/2405 7000 DZ SCT020TCU 
     TEMPO 2409/2413 8000 SCT015 
     TEMPO 2419/2423 27010KT VCSH SCT017TCU TX28/2419Z TN17/2411Z
       
TAF SKSP 232300Z 2400/2424 06012KT 9999 FEW018 
     TEMPO 2402/2405 SCT017TCU 
     TEMPO 24092413 8000 DZ 
     TEMPO 2419/2423 -RA SCT015TCU TX31/2418Z TN25/2411Z